sensor_id;sensor_type;location;lat;lon;timestamp;pressure;altitude;pressure_sealevel;temperature;humidity
74065;BME280;62421;51.412;5.432;2023-04-01T00:01:57;99057.38;;;8.80;100.00
74065;BME280;62421;51.412;5.432;2023-04-01T00:04:23;99052.28;;;8.77;100.00
74065;BME280;62421;51.412;5.432;2023-04-01T00:06:48;99052.28;;;8.77;100.00
74065;BME280;62421;51.412;5.432;2023-04-01T00:09:14;99056.81;;;8.76;100.00
74065;BME280;62421;51.412;5.432;2023-04-01T00:11:40;99049.91;;;8.74;100.00
74065;BME280;62421;51.412;5.432;2023-04-01T00:14:06;99060.63;;;8.74;100.00
74065;BME280;62421;51.412;5.432;2023-04-01T00:16:32;99057.09;;;8.73;100.00
74065;BME280;62421;51.412;5.432;2023-04-01T00:18:57;99061.56;;;8.73;100.00
74065;BME280;62421;51.412;5.432;2023-04-01T00:21:23;99063.41;;;8.72;100.00
74065;BME280;62421;51.412;5.432;2023-04-01T00:23:51;99062.44;;;8.73;100.00
74065;BME280;62421;51.412;5.432;2023-04-01T00:26:16;99066.94;;;8.73;100.00
74065;BME280;62421;51.412;5.432;2023-04-01T00:28:44;99060.75;;;8.72;100.00
74065;BME280;62421;51.412;5.432;2023-04-01T00:31:10;99066.22;;;8.71;100.00
74065;BME280;62421;51.412;5.432;2023-04-01T00:33:36;99068.06;;;8.70;100.00
74065;BME280;62421;51.412;5.432;2023-04-01T00:36:08;99075.25;;;8.70;100.00
74065;BME280;62421;51.412;5.432;2023-04-01T00:38:35;99069.91;;;8.70;100.00
74065;BME280;62421;51.412;5.432;2023-04-01T00:41:00;99066.22;;;8.71;100.00
74065;BME280;62421;51.412;5.432;2023-04-01T00:43:25;99066.38;;;8.69;100.00
74065;BME280;62421;51.412;5.432;2023-04-01T00:45:51;99073.53;;;8.69;100.00
74065;BME280;62421;51.412;5.432;2023-04-01T00:48:19;99079.06;;;8.67;100.00
74065;BME280;62421;51.412;5.432;2023-04-01T00:50:58;99074.53;;;8.68;100.00
74065;BME280;62421;51.412;5.432;2023-04-01T00:53:25;99089.03;;;8.65;100.00
74065;BME280;62421;51.412;5.432;2023-04-01T00:56:01;99086.50;;;8.64;100.00
74065;BME280;62421;51.412;5.432;2023-04-01T00:58:31;99094.66;;;8.62;100.00
74065;BME280;62421;51.412;5.432;2023-04-01T01:00:59;99099.31;;;8.60;100.00
74065;BME280;62421;51.412;5.432;2023-04-01T01:03:25;99095.06;;;8.57;100.00
74065;BME280;62421;51.412;5.432;2023-04-01T01:05:54;99101.13;;;8.59;100.00
74065;BME280;62421;51.412;5.432;2023-04-01T01:11:08;99103.22;;;8.56;100.00
74065;BME280;62421;51.412;5.432;2023-04-01T01:16:43;99101.25;;;8.58;100.00
74065;BME280;62421;51.412;5.432;2023-04-01T01:22:16;99108.56;;;8.56;100.00
74065;BME280;62421;51.412;5.432;2023-04-01T01:27:32;99115.34;;;8.60;100.00
74065;BME280;62421;51.412;5.432;2023-04-01T01:33:34;99102.25;;;8.57;100.00
74065;BME280;62421;51.412;5.432;2023-04-01T01:36:02;99112.84;;;8.58;100.00
74065;BME280;62421;51.412;5.432;2023-04-01T01:38:33;99110.16;;;8.58;100.00
74065;BME280;62421;51.412;5.432;2023-04-01T01:41:00;99116.47;;;8.57;100.00
74065;BME280;62421;51.412;5.432;2023-04-01T01:43:30;99111.00;;;8.59;100.00
74065;BME280;62421;51.412;5.432;2023-04-01T01:46:02;99117.31;;;8.58;100.00
74065;BME280;62421;51.412;5.432;2023-04-01T01:48:30;99119.03;;;8.59;100.00
74065;BME280;62421;51.412;5.432;2023-04-01T01:50:56;99112.13;;;8.56;100.00
74065;BME280;62421;51.412;5.432;2023-04-01T01:53:22;99120.00;;;8.58;100.00
74065;BME280;62421;51.412;5.432;2023-04-01T01:55:47;99128.00;;;8.58;100.00
74065;BME280;62421;51.412;5.432;2023-04-01T01:58:26;99126.22;;;8.58;100.00
74065;BME280;62421;51.412;5.432;2023-04-01T02:00:57;99127.88;;;8.59;100.00
74065;BME280;62421;51.412;5.432;2023-04-01T02:03:25;99129.97;;;8.56;100.00
74065;BME280;62421;51.412;5.432;2023-04-01T02:05:54;99135.06;;;8.59;100.00
74065;BME280;62421;51.412;5.432;2023-04-01T02:08:26;99145.06;;;8.57;100.00
74065;BME280;62421;51.412;5.432;2023-04-01T02:11:00;99138.00;;;8.56;100.00
74065;BME280;62421;51.412;5.432;2023-04-01T02:14:35;99137.88;;;8.57;100.00
74065;BME280;62421;51.412;5.432;2023-04-01T02:16:34;99143.34;;;8.56;100.00
74065;BME280;62421;51.412;5.432;2023-04-01T02:19:03;99138.88;;;8.56;100.00
74065;BME280;62421;51.412;5.432;2023-04-01T02:21:33;99145.91;;;8.57;100.00
74065;BME280;62421;51.412;5.432;2023-04-01T02:24:00;99145.19;;;8.55;100.00
74065;BME280;62421;51.412;5.432;2023-04-01T02:26:27;99144.22;;;8.56;100.00
74065;BME280;62421;51.412;5.432;2023-04-01T02:28:54;99139.00;;;8.55;100.00
74065;BME280;62421;51.412;5.432;2023-04-01T02:31:20;99138.28;;;8.53;100.00
74065;BME280;62421;51.412;5.432;2023-04-01T02:33:47;99145.47;;;8.52;100.00
74065;BME280;62421;51.412;5.432;2023-04-01T02:36:14;99154.47;;;8.51;100.00
74065;BME280;62421;51.412;5.432;2023-04-01T02:38:42;99152.78;;;8.50;100.00
74065;BME280;62421;51.412;5.432;2023-04-01T02:41:09;99157.31;;;8.50;100.00
74065;BME280;62421;51.412;5.432;2023-04-01T02:43:35;99155.06;;;8.55;100.00
74065;BME280;62421;51.412;5.432;2023-04-01T02:46:00;99155.59;;;8.49;100.00
74065;BME280;62421;51.412;5.432;2023-04-01T02:48:27;99153.75;;;8.49;100.00
74065;BME280;62421;51.412;5.432;2023-04-01T02:50:52;99161.06;;;8.47;100.00
74065;BME280;62421;51.412;5.432;2023-04-01T02:53:18;99169.09;;;8.47;100.00
74065;BME280;62421;51.412;5.432;2023-04-01T02:55:43;99162.19;;;8.45;100.00
74065;BME280;62421;51.412;5.432;2023-04-01T02:58:10;99162.91;;;8.47;100.00
74065;BME280;62421;51.412;5.432;2023-04-01T03:00:35;99175.16;;;8.49;100.00
74065;BME280;62421;51.412;5.432;2023-04-01T03:03:01;99161.06;;;8.47;100.00
74065;BME280;62421;51.412;5.432;2023-04-01T03:05:28;99162.91;;;8.47;100.00
74065;BME280;62421;51.412;5.432;2023-04-01T03:07:53;99173.72;;;8.45;100.00
74065;BME280;62421;51.412;5.432;2023-04-01T03:10:19;99173.72;;;8.45;100.00
74065;BME280;62421;51.412;5.432;2023-04-01T03:12:44;99179.25;;;8.44;100.00
74065;BME280;62421;51.412;5.432;2023-04-01T03:15:11;99178.53;;;8.42;100.00
74065;BME280;62421;51.412;5.432;2023-04-01T03:17:38;99180.38;;;8.41;100.00
74065;BME280;62421;51.412;5.432;2023-04-01T03:20:05;99181.19;;;8.42;100.00
74065;BME280;62421;51.412;5.432;2023-04-01T03:22:31;99186.28;;;8.45;100.00
74065;BME280;62421;51.412;5.432;2023-04-01T03:24:56;99190.31;;;8.39;100.00
74065;BME280;62421;51.412;5.432;2023-04-01T03:27:22;99189.44;;;8.38;100.00
74065;BME280;62421;51.412;5.432;2023-04-01T03:29:48;99185.94;;;8.38;100.00
74065;BME280;62421;51.412;5.432;2023-04-01T03:32:13;99196.63;;;8.38;100.00
74065;BME280;62421;51.412;5.432;2023-04-01T03:34:39;99204.53;;;8.39;100.00
74065;BME280;62421;51.412;5.432;2023-04-01T03:37:04;99191.28;;;8.38;100.00
74065;BME280;62421;51.412;5.432;2023-04-01T03:39:31;99196.63;;;8.38;100.00
74065;BME280;62421;51.412;5.432;2023-04-01T03:41:56;99198.47;;;8.37;100.00
74065;BME280;62421;51.412;5.432;2023-04-01T03:44:21;99201.25;;;8.36;100.00
74065;BME280;62421;51.412;5.432;2023-04-01T03:46:47;99210.72;;;8.40;100.00
74065;BME280;62421;51.412;5.432;2023-04-01T03:49:12;99200.28;;;8.37;100.00
74065;BME280;62421;51.412;5.432;2023-04-01T03:51:39;99197.75;;;8.35;100.00
74065;BME280;62421;51.412;5.432;2023-04-01T03:54:05;99209.28;;;8.36;100.00
74065;BME280;62421;51.412;5.432;2023-04-01T03:56:31;99212.78;;;8.36;100.00
74065;BME280;62421;51.412;5.432;2023-04-01T03:58:56;99212.94;;;8.35;100.00
74065;BME280;62421;51.412;5.432;2023-04-01T04:01:22;99207.72;;;8.33;100.00
74065;BME280;62421;51.412;5.432;2023-04-01T04:03:48;99207.72;;;8.33;100.00
74065;BME280;62421;51.412;5.432;2023-04-01T04:06:15;99205.91;;;8.34;100.00
74065;BME280;62421;51.412;5.432;2023-04-01T04:08:41;99212.34;;;8.31;100.00
74065;BME280;62421;51.412;5.432;2023-04-01T04:11:06;99220.50;;;8.30;100.00
74065;BME280;62421;51.412;5.432;2023-04-01T04:13:32;99216.16;;;8.29;100.00
74065;BME280;62421;51.412;5.432;2023-04-01T04:15:58;99219.38;;;8.32;100.00
74065;BME280;62421;51.412;5.432;2023-04-01T04:18:23;99218.56;;;8.32;100.00
74065;BME280;62421;51.412;5.432;2023-04-01T04:20:48;99219.94;;;8.26;100.00
74065;BME280;62421;51.412;5.432;2023-04-01T04:23:16;99227.97;;;8.26;100.00
74065;BME280;62421;51.412;5.432;2023-04-01T04:25:53;99232.72;;;8.23;100.00
74065;BME280;62421;51.412;5.432;2023-04-01T04:28:18;99226.38;;;8.24;100.00
74065;BME280;62421;51.412;5.432;2023-04-01T04:30:44;99234.56;;;8.22;100.00
74065;BME280;62421;51.412;5.432;2023-04-01T04:33:09;99229.59;;;8.17;100.00
74065;BME280;62421;51.412;5.432;2023-04-01T04:35:35;99233.25;;;8.16;100.00
74065;BME280;62421;51.412;5.432;2023-04-01T04:38:00;99238.47;;;8.18;100.00
74065;BME280;62421;51.412;5.432;2023-04-01T04:40:25;99226.06;;;8.17;100.00
74065;BME280;62421;51.412;5.432;2023-04-01T04:42:51;99243.69;;;8.19;100.00
74065;BME280;62421;51.412;5.432;2023-04-01T04:45:16;99242.25;;;8.15;100.00
74065;BME280;62421;51.412;5.432;2023-04-01T04:47:41;99249.16;;;8.18;100.00
74065;BME280;62421;51.412;5.432;2023-04-01T04:50:08;99256.47;;;8.16;100.00
74065;BME280;62421;51.412;5.432;2023-04-01T04:52:33;99257.69;;;8.12;100.00
74065;BME280;62421;51.412;5.432;2023-04-01T04:54:59;99260.09;;;8.15;100.00
74065;BME280;62421;51.412;5.432;2023-04-01T04:57:24;99264.88;;;8.11;100.00
74065;BME280;62421;51.412;5.432;2023-04-01T04:59:50;99270.34;;;8.10;100.00
74065;BME280;62421;51.412;5.432;2023-04-01T05:02:15;99271.06;;;8.12;100.00
74065;BME280;62421;51.412;5.432;2023-04-01T05:04:40;99271.34;;;8.09;100.00
74065;BME280;62421;51.412;5.432;2023-04-01T05:07:06;99275.69;;;8.10;100.00
74065;BME280;62421;51.412;5.432;2023-04-01T05:09:31;99280.06;;;8.11;100.00
74065;BME280;62421;51.412;5.432;2023-04-01T05:11:57;99274.97;;;8.08;100.00
74065;BME280;62421;51.412;5.432;2023-04-01T05:14:23;99279.38;;;8.09;100.00
74065;BME280;62421;51.412;5.432;2023-04-01T05:16:48;99283.13;;;8.06;100.00
74065;BME280;62421;51.412;5.432;2023-04-01T05:19:15;99288.75;;;8.03;100.00
74065;BME280;62421;51.412;5.432;2023-04-01T05:21:40;99292.25;;;8.04;100.00
74065;BME280;62421;51.412;5.432;2023-04-01T05:24:09;99291.13;;;8.06;100.00
74065;BME280;62421;51.412;5.432;2023-04-01T05:26:35;99298.31;;;8.06;100.00
74065;BME280;62421;51.412;5.432;2023-04-01T05:29:02;99295.41;;;8.09;100.00
74065;BME280;62421;51.412;5.432;2023-04-01T05:31:27;99297.22;;;8.08;100.00
74065;BME280;62421;51.412;5.432;2023-04-01T05:33:53;99306.34;;;8.06;100.00
74065;BME280;62421;51.412;5.432;2023-04-01T05:36:19;99303.94;;;8.03;100.00
74065;BME280;62421;51.412;5.432;2023-04-01T05:38:44;99305.75;;;8.02;100.00
74065;BME280;62421;51.412;5.432;2023-04-01T05:41:11;99311.97;;;8.03;100.00
74065;BME280;62421;51.412;5.432;2023-04-01T05:43:37;99316.59;;;8.00;100.00
74065;BME280;62421;51.412;5.432;2023-04-01T05:46:03;99325.31;;;8.03;100.00
74065;BME280;62421;51.412;5.432;2023-04-01T05:48:28;99327.28;;;8.00;100.00
74065;BME280;62421;51.412;5.432;2023-04-01T05:50:54;99326.41;;;8.00;100.00
74065;BME280;62421;51.412;5.432;2023-04-01T05:53:19;99339.75;;;8.00;100.00
74065;BME280;62421;51.412;5.432;2023-04-01T05:55:45;99336.97;;;8.02;100.00
74065;BME280;62421;51.412;5.432;2023-04-01T05:58:10;99339.75;;;8.00;100.00
74065;BME280;62421;51.412;5.432;2023-04-01T06:00:35;99344.03;;;8.03;100.00
74065;BME280;62421;51.412;5.432;2023-04-01T06:03:01;99348.50;;;8.02;100.00
74065;BME280;62421;51.412;5.432;2023-04-01T06:05:29;99350.47;;;8.00;100.00
74065;BME280;62421;51.412;5.432;2023-04-01T06:07:58;99354.97;;;7.99;100.00
74065;BME280;62421;51.412;5.432;2023-04-01T06:10:36;99362.88;;;8.01;100.00
74065;BME280;62421;51.412;5.432;2023-04-01T06:13:10;99365.53;;;8.01;100.00
74065;BME280;62421;51.412;5.432;2023-04-01T06:26:37;99384.97;;;8.03;100.00
74065;BME280;62421;51.412;5.432;2023-04-01T06:29:39;99382.41;;;8.02;100.00
74065;BME280;62421;51.412;5.432;2023-04-01T06:43:37;99406.19;;;8.16;100.00
74065;BME280;62421;51.412;5.432;2023-04-01T06:54:13;99427.09;;;8.22;100.00
74065;BME280;62421;51.412;5.432;2023-04-01T06:56:42;99432.28;;;8.24;100.00
74065;BME280;62421;51.412;5.432;2023-04-01T06:59:32;99424.97;;;8.26;100.00
74065;BME280;62421;51.412;5.432;2023-04-01T07:02:29;99428.53;;;8.26;100.00
74065;BME280;62421;51.412;5.432;2023-04-01T07:04:58;99440.28;;;8.35;100.00
74065;BME280;62421;51.412;5.432;2023-04-01T07:07:53;99437.13;;;8.41;100.00
74065;BME280;62421;51.412;5.432;2023-04-01T07:13:34;99437.59;;;8.46;100.00
74065;BME280;62421;51.412;5.432;2023-04-01T07:16:08;99445.22;;;8.51;100.00
74065;BME280;62421;51.412;5.432;2023-04-01T07:19:05;99445.50;;;8.48;100.00
74065;BME280;62421;51.412;5.432;2023-04-01T07:24:44;99464.94;;;8.50;100.00
74065;BME280;62421;51.412;5.432;2023-04-01T07:27:12;99456.66;;;8.53;100.00
74065;BME280;62421;51.412;5.432;2023-04-01T07:29:38;99472.19;;;8.59;100.00
74065;BME280;62421;51.412;5.432;2023-04-01T07:38:00;99488.06;;;8.72;100.00
74065;BME280;62421;51.412;5.432;2023-04-01T07:40:51;99491.94;;;8.79;100.00
74065;BME280;62421;51.412;5.432;2023-04-01T07:44:02;99485.22;;;8.85;100.00
74065;BME280;62421;51.412;5.432;2023-04-01T07:54:43;99501.31;;;9.06;100.00
74065;BME280;62421;51.412;5.432;2023-04-01T08:03:10;99500.44;;;9.26;100.00
74065;BME280;62421;51.412;5.432;2023-04-01T08:14:48;99527.31;;;9.76;100.00
74065;BME280;62421;51.412;5.432;2023-04-01T08:17:59;99533.03;;;9.83;100.00
74065;BME280;62421;51.412;5.432;2023-04-01T08:23:19;99540.56;;;9.68;100.00
74065;BME280;62421;51.412;5.432;2023-04-01T08:25:58;99552.06;;;9.59;100.00
74065;BME280;62421;51.412;5.432;2023-04-01T08:28:36;99538.81;;;9.57;100.00
74065;BME280;62421;51.412;5.432;2023-04-01T08:33:32;99548.78;;;9.76;100.00
74065;BME280;62421;51.412;5.432;2023-04-01T08:38:46;99556.66;;;9.99;100.00
74065;BME280;62421;51.412;5.432;2023-04-01T08:55:30;99580.19;;;10.96;100.00
74065;BME280;62421;51.412;5.432;2023-04-01T08:58:16;99585.69;;;10.94;100.00
74065;BME280;62421;51.412;5.432;2023-04-01T09:07:26;99595.63;;;11.03;100.00
74065;BME280;62421;51.412;5.432;2023-04-01T09:15:25;99605.06;;;10.88;100.00
74065;BME280;62421;51.412;5.432;2023-04-01T09:18:16;99610.84;;;10.74;100.00
74065;BME280;62421;51.412;5.432;2023-04-01T09:35:01;99624.94;;;10.66;100.00
74065;BME280;62421;51.412;5.432;2023-04-01T09:40:17;99632.00;;;10.57;100.00
74065;BME280;62421;51.412;5.432;2023-04-01T09:45:37;99639.88;;;10.49;100.00
74065;BME280;62421;51.412;5.432;2023-04-01T09:51:18;99646.78;;;10.42;100.00
74065;BME280;62421;51.412;5.432;2023-04-01T10:14:10;99666.63;;;10.60;100.00
74065;BME280;62421;51.412;5.432;2023-04-01T10:20:02;99679.91;;;10.62;100.00
74065;BME280;62421;51.412;5.432;2023-04-01T10:39:20;99690.88;;;10.49;100.00
74065;BME280;62421;51.412;5.432;2023-04-01T10:56:07;99702.13;;;10.74;100.00
74065;BME280;62421;51.412;5.432;2023-04-01T11:07:46;99721.13;;;10.51;100.00
74065;BME280;62421;51.412;5.432;2023-04-01T11:24:17;99724.19;;;10.47;100.00
74065;BME280;62421;51.412;5.432;2023-04-01T11:26:55;99733.50;;;10.42;100.00
74065;BME280;62421;51.412;5.432;2023-04-01T11:29:36;99731.53;;;10.44;100.00
74065;BME280;62421;51.412;5.432;2023-04-01T11:32:29;99737.03;;;10.43;100.00
74065;BME280;62421;51.412;5.432;2023-04-01T11:43:54;99754.56;;;10.47;100.00
74065;BME280;62421;51.412;5.432;2023-04-01T11:46:39;99747.94;;;10.51;100.00
74065;BME280;62421;51.412;5.432;2023-04-01T11:49:29;99755.34;;;10.59;100.00
74065;BME280;62421;51.412;5.432;2023-04-01T11:55:50;99761.44;;;10.61;100.00
74065;BME280;62421;51.412;5.432;2023-04-01T12:01:55;99773.59;;;10.65;100.00
74065;BME280;62421;51.412;5.432;2023-04-01T12:04:54;99777.13;;;10.65;100.00
74065;BME280;62421;51.412;5.432;2023-04-01T12:07:38;99773.91;;;10.72;100.00
74065;BME280;62421;51.412;5.432;2023-04-01T12:10:28;99776.22;;;10.86;100.00
74065;BME280;62421;51.412;5.432;2023-04-01T12:13:11;99778.81;;;10.97;100.00
74065;BME280;62421;51.412;5.432;2023-04-01T12:19:01;99792.19;;;10.78;100.00
74065;BME280;62421;51.412;5.432;2023-04-01T12:21:38;99787.19;;;10.73;100.00
74065;BME280;62421;51.412;5.432;2023-04-01T12:26:51;99791.28;;;10.68;100.00
74065;BME280;62421;51.412;5.432;2023-04-01T12:34:49;99807.31;;;10.58;100.00
74065;BME280;62421;51.412;5.432;2023-04-01T12:37:39;99806.16;;;10.51;100.00
74065;BME280;62421;51.412;5.432;2023-04-01T12:53:55;99821.16;;;10.84;100.00
74065;BME280;62421;51.412;5.432;2023-04-01T12:56:19;99835.47;;;10.84;100.00
74065;BME280;62421;51.412;5.432;2023-04-01T13:12:53;99836.59;;;10.82;100.00
74065;BME280;62421;51.412;5.432;2023-04-01T13:29:20;99854.97;;;10.86;100.00
74065;BME280;62421;51.412;5.432;2023-04-01T13:34:39;99858.63;;;10.85;100.00
74065;BME280;62421;51.412;5.432;2023-04-01T13:37:36;99859.09;;;10.91;100.00
74065;BME280;62421;51.412;5.432;2023-04-01T13:40:33;99868.84;;;10.92;100.00
74065;BME280;62421;51.412;5.432;2023-04-01T13:43:25;99868.81;;;10.82;100.00
74065;BME280;62421;51.412;5.432;2023-04-01T13:53:50;99881.13;;;10.63;100.00
74065;BME280;62421;51.412;5.432;2023-04-01T13:56:42;99881.00;;;10.65;100.00
74065;BME280;62421;51.412;5.432;2023-04-01T13:59:35;99880.50;;;10.60;100.00
74065;BME280;62421;51.412;5.432;2023-04-01T14:07:58;99894.28;;;10.45;100.00
74065;BME280;62421;51.412;5.432;2023-04-01T14:13:44;99905.38;;;10.41;100.00
74065;BME280;62421;51.412;5.432;2023-04-01T14:21:35;99913.38;;;10.20;100.00
74065;BME280;62421;51.412;5.432;2023-04-01T14:26:56;99915.72;;;10.13;100.00
74065;BME280;62421;51.412;5.432;2023-04-01T14:35:09;99919.38;;;10.12;100.00
74065;BME280;62421;51.412;5.432;2023-04-01T14:37:55;99928.66;;;10.08;100.00
74065;BME280;62421;51.412;5.432;2023-04-01T14:40:52;99930.75;;;10.04;100.00
74065;BME280;62421;51.412;5.432;2023-04-01T14:51:40;99938.97;;;9.80;100.00
74065;BME280;62421;51.412;5.432;2023-04-01T14:57:04;99948.47;;;9.73;100.00
74065;BME280;62421;51.412;5.432;2023-04-01T14:59:30;99945.44;;;9.78;100.00
74065;BME280;62421;51.412;5.432;2023-04-01T15:02:02;99953.59;;;9.76;100.00
74065;BME280;62421;51.412;5.432;2023-04-01T15:04:47;99949.31;;;9.74;100.00
74065;BME280;62421;51.412;5.432;2023-04-01T15:25:19;99987.84;;;9.50;100.00
74065;BME280;62421;51.412;5.432;2023-04-01T15:28:10;99987.63;;;9.53;100.00
74065;BME280;62421;51.412;5.432;2023-04-01T15:34:06;99992.50;;;9.59;100.00
74065;BME280;62421;51.412;5.432;2023-04-01T15:36:41;100001.00;;;9.53;100.00
74065;BME280;62421;51.412;5.432;2023-04-01T15:39:20;100007.09;;;9.55;100.00
74065;BME280;62421;51.412;5.432;2023-04-01T15:45:12;100008.31;;;9.51;100.00
74065;BME280;62421;51.412;5.432;2023-04-01T15:48:06;100007.06;;;9.44;100.00
74065;BME280;62421;51.412;5.432;2023-04-01T15:50:54;100016.09;;;9.43;100.00
74065;BME280;62421;51.412;5.432;2023-04-01T15:53:35;100020.97;;;9.38;100.00
74065;BME280;62421;51.412;5.432;2023-04-01T15:56:15;100018.91;;;9.41;100.00
74065;BME280;62421;51.412;5.432;2023-04-01T15:59:00;100022.94;;;9.47;100.00
74065;BME280;62421;51.412;5.432;2023-04-01T16:04:46;100027.66;;;9.55;100.00
74065;BME280;62421;51.412;5.432;2023-04-01T16:24:03;100047.63;;;9.28;100.00
74065;BME280;62421;51.412;5.432;2023-04-01T16:33:04;100054.94;;;9.26;100.00
74065;BME280;62421;51.412;5.432;2023-04-01T16:35:47;100051.41;;;9.26;100.00
74065;BME280;62421;51.412;5.432;2023-04-01T16:41:19;100050.66;;;9.23;100.00
74065;BME280;62421;51.412;5.432;2023-04-01T16:43:52;100056.13;;;9.22;100.00
74065;BME280;62421;51.412;5.432;2023-04-01T16:46:28;100060.63;;;9.21;100.00
74065;BME280;62421;51.412;5.432;2023-04-01T16:54:44;100055.38;;;9.09;100.00
74065;BME280;62421;51.412;5.432;2023-04-01T16:57:31;100054.53;;;9.08;100.00
74065;BME280;62421;51.412;5.432;2023-04-01T17:03:10;100059.34;;;9.03;100.00
74065;BME280;62421;51.412;5.432;2023-04-01T17:05:55;100074.56;;;9.02;100.00
74065;BME280;62421;51.412;5.432;2023-04-01T17:08:42;100079.19;;;9.00;100.00
74065;BME280;62421;51.412;5.432;2023-04-01T17:11:18;100073.84;;;9.00;100.00
74065;BME280;62421;51.412;5.432;2023-04-01T17:19:45;100093.50;;;8.88;100.00
74065;BME280;62421;51.412;5.432;2023-04-01T17:22:25;100100.56;;;8.89;100.00
74065;BME280;62421;51.412;5.432;2023-04-01T17:27:59;100097.44;;;8.95;100.00
74065;BME280;62421;51.412;5.432;2023-04-01T17:33:30;100122.94;;;8.88;100.00
74065;BME280;62421;51.412;5.432;2023-04-01T17:44:35;100138.22;;;8.75;100.00
74065;BME280;62421;51.412;5.432;2023-04-01T17:50:22;100145.81;;;8.81;100.00
74065;BME280;62421;51.412;5.432;2023-04-01T17:53:07;100150.06;;;8.84;100.00
74065;BME280;62421;51.412;5.432;2023-04-01T17:58:34;100169.44;;;8.87;100.00
74065;BME280;62421;51.412;5.432;2023-04-01T18:09:33;100191.38;;;8.92;100.00
74065;BME280;62421;51.412;5.432;2023-04-01T18:23:03;100218.53;;;8.99;100.00
74065;BME280;62421;51.412;5.432;2023-04-01T18:25:38;100224.78;;;8.99;100.00
74065;BME280;62421;51.412;5.432;2023-04-01T18:30:32;100238.91;;;9.01;100.00
74065;BME280;62421;51.412;5.432;2023-04-01T18:33:04;100244.47;;;8.98;100.00
74065;BME280;62421;51.412;5.432;2023-04-01T18:38:29;100246.31;;;8.98;100.00
74065;BME280;62421;51.412;5.432;2023-04-01T18:41:14;100264.22;;;8.97;100.00
74065;BME280;62421;51.412;5.432;2023-04-01T18:49:41;100290.09;;;8.97;100.00
74065;BME280;62421;51.412;5.432;2023-04-01T18:57:15;100297.53;;;8.93;100.00
74065;BME280;62421;51.412;5.432;2023-04-01T19:05:09;100324.72;;;8.87;100.00
74065;BME280;62421;51.412;5.432;2023-04-01T19:13:16;100342.84;;;8.71;100.00
74065;BME280;62421;51.412;5.432;2023-04-01T19:18:35;100348.75;;;8.63;100.00
74065;BME280;62421;51.412;5.432;2023-04-01T19:21:28;100347.00;;;8.62;100.00
74065;BME280;62421;51.412;5.432;2023-04-01T19:24:12;100363.19;;;8.60;100.00
74065;BME280;62421;51.412;5.432;2023-04-01T19:27:12;100359.34;;;8.52;100.00
74065;BME280;62421;51.412;5.432;2023-04-01T19:35:26;100377.50;;;8.47;100.00
74065;BME280;62421;51.412;5.432;2023-04-01T19:46:41;100404.22;;;8.34;100.00
74065;BME280;62421;51.412;5.432;2023-04-01T19:49:29;100402.63;;;8.31;100.00
74065;BME280;62421;51.412;5.432;2023-04-01T19:52:21;100416.22;;;8.28;100.00
74065;BME280;62421;51.412;5.432;2023-04-01T19:55:01;100417.06;;;8.29;100.00
74065;BME280;62421;51.412;5.432;2023-04-01T19:57:37;100425.28;;;8.26;100.00
74065;BME280;62421;51.412;5.432;2023-04-01T20:00:22;100431.69;;;8.23;100.00
74065;BME280;62421;51.412;5.432;2023-04-01T20:06:00;100445.16;;;8.21;100.00
74065;BME280;62421;51.412;5.432;2023-04-01T20:11:27;100464.41;;;8.14;100.00
74065;BME280;62421;51.412;5.432;2023-04-01T20:14:09;100469.00;;;8.12;100.00
74065;BME280;62421;51.412;5.432;2023-04-01T20:19:12;100484.13;;;7.98;100.00
74065;BME280;62421;51.412;5.432;2023-04-01T20:21:46;100480.03;;;7.93;100.00
74065;BME280;62421;51.412;5.432;2023-04-01T20:24:20;100494.56;;;7.89;100.00
74065;BME280;62421;51.412;5.432;2023-04-01T20:27:00;100498.97;;;7.90;100.00
74065;BME280;62421;51.412;5.432;2023-04-01T20:29:37;100501.03;;;7.85;100.00
74065;BME280;62421;51.412;5.432;2023-04-01T20:45:37;100540.97;;;7.73;100.00
74065;BME280;62421;51.412;5.432;2023-04-01T20:50:55;100550.44;;;7.65;100.00
74065;BME280;62421;51.412;5.432;2023-04-01T20:53:33;100560.72;;;7.56;100.00
74065;BME280;62421;51.412;5.432;2023-04-01T21:05:09;100571.44;;;7.42;100.00
74065;BME280;62421;51.412;5.432;2023-04-01T21:07:48;100583.06;;;7.41;100.00
74065;BME280;62421;51.412;5.432;2023-04-01T21:13:02;100594.50;;;7.43;100.00
74065;BME280;62421;51.412;5.432;2023-04-01T21:16:01;100588.47;;;7.39;100.00
74065;BME280;62421;51.412;5.432;2023-04-01T21:23:49;100610.03;;;7.36;100.00
74065;BME280;62421;51.412;5.432;2023-04-01T21:26:43;100618.84;;;7.38;100.00
74065;BME280;62421;51.412;5.432;2023-04-01T21:40:05;100658.19;;;7.21;100.00
74065;BME280;62421;51.412;5.432;2023-04-01T22:05:24;100701.47;;;6.95;100.00
74065;BME280;62421;51.412;5.432;2023-04-01T22:07:59;100701.75;;;6.91;100.00
74065;BME280;62421;51.412;5.432;2023-04-01T22:10:53;100713.59;;;6.85;100.00
74065;BME280;62421;51.412;5.432;2023-04-01T22:16:22;100719.13;;;6.82;100.00
74065;BME280;62421;51.412;5.432;2023-04-01T22:19:20;100729.28;;;6.75;100.00
74065;BME280;62421;51.412;5.432;2023-04-01T22:24:54;100733.94;;;6.72;100.00
74065;BME280;62421;51.412;5.432;2023-04-01T22:30:39;100740.56;;;6.65;100.00
74065;BME280;62421;51.412;5.432;2023-04-01T22:33:14;100746.06;;;6.62;100.00
74065;BME280;62421;51.412;5.432;2023-04-01T22:43:56;100756.53;;;6.49;100.00
74065;BME280;62421;51.412;5.432;2023-04-01T22:46:52;100764.47;;;6.50;100.00
74065;BME280;62421;51.412;5.432;2023-04-01T22:54:52;100785.75;;;6.34;100.00
74065;BME280;62421;51.412;5.432;2023-04-01T22:57:40;100787.22;;;6.24;100.00
74065;BME280;62421;51.412;5.432;2023-04-01T23:00:26;100803.09;;;6.26;100.00
74065;BME280;62421;51.412;5.432;2023-04-01T23:03:14;100797.78;;;6.26;100.00
74065;BME280;62421;51.412;5.432;2023-04-01T23:05:54;100811.34;;;6.21;100.00
74065;BME280;62421;51.412;5.432;2023-04-01T23:19:37;100831.53;;;6.09;100.00